Time;durP1;ratioP1;P1;durP2;ratioP2;P2;SDS_P1;SDS_P2;PMS_P1;PMS_P2;Temp;Humidity;BMP_temperature;BMP_pressure;BME280_temperature;BME280_humidity;BME280_pressure;Samples;Min_cycle;Max_cycle;Signal;HPM_P1;HPM_P2
2021/12/13 00:01:45;;;;;;;2.10;1.60;;;;;;;-0.04;100.00;94480.44;5034281;28;20233;-62
2021/12/13 00:04:19;;;;;;;1.80;1.70;;;;;;;-0.01;100.00;94485.28;5034244;28;20178;-59
2021/12/13 00:06:53;;;;;;;1.73;1.60;;;;;;;0.03;100.00;94493.44;5032826;28;20217;-59
2021/12/13 00:09:22;;;;;;;1.67;1.50;;;;;;;-0.03;100.00;94494.56;5033954;28;20187;-60
2021/12/13 00:12:03;;;;;;;2.20;1.60;;;;;;;-0.15;100.00;94490.13;5034455;28;20186;-58
2021/12/13 00:14:35;;;;;;;2.50;1.37;;;;;;;-0.15;100.00;94487.63;5034251;28;20185;-58
2021/12/13 00:17:05;;;;;;;1.57;1.47;;;;;;;-0.07;100.00;94503.88;5033460;28;20176;-63
2021/12/13 00:19:36;;;;;;;1.73;1.43;;;;;;;-0.02;100.00;94504.47;5031785;28;20292;-62
2021/12/13 00:22:09;;;;;;;2.10;1.60;;;;;;;-0.07;100.00;94503.88;5033027;28;20223;-58
2021/12/13 00:24:39;;;;;;;1.60;1.50;;;;;;;-0.03;100.00;94502.03;5041254;22;20255;-57
2021/12/13 00:27:18;;;;;;;1.40;1.27;;;;;;;0.00;100.00;94492.72;5033947;28;20208;-62
2021/12/13 00:29:55;;;;;;;1.57;1.33;;;;;;;0.10;100.00;94500.59;5034310;28;20208;-62
2021/12/13 00:32:34;;;;;;;1.23;1.13;;;;;;;0.12;100.00;94501.34;5033828;28;20592;-60
2021/12/13 00:35:04;;;;;;;1.43;1.30;;;;;;;0.04;100.00;94502.56;5034057;28;20555;-62
2021/12/13 00:37:45;;;;;;;1.10;1.10;;;;;;;0.09;100.00;94503.97;5033895;28;20199;-60
2021/12/13 00:40:22;;;;;;;1.50;1.40;;;;;;;0.06;100.00;94496.63;5033378;28;20216;-63
2021/12/13 00:43:04;;;;;;;1.30;1.20;;;;;;;0.17;100.00;94498.59;5033504;28;20169;-58
2021/12/13 00:45:34;;;;;;;1.40;1.30;;;;;;;0.11;100.00;94508.88;5033614;28;20225;-60
2021/12/13 00:48:02;;;;;;;1.40;1.30;;;;;;;0.15;100.00;94506.19;5033282;28;20609;-62
2021/12/13 00:50:47;;;;;;;1.40;1.30;;;;;;;0.22;100.00;94506.72;5032653;28;20694;-62
2021/12/13 00:53:21;;;;;;;1.67;1.30;;;;;;;0.10;100.00;94508.09;5031295;28;20652;-62
2021/12/13 00:55:47;;;;;;;1.77;1.20;;;;;;;0.06;100.00;94503.31;5033213;28;20255;-58
2021/12/13 00:58:18;;;;;;;1.43;1.33;;;;;;;0.16;100.00;94504.50;5032336;28;20234;-61
2021/12/13 01:00:49;;;;;;;1.60;1.40;;;;;;;0.08;100.00;94509.88;5033251;28;20201;-58
2021/12/13 01:03:27;;;;;;;1.77;1.37;;;;;;;0.09;100.00;94495.66;5033155;28;20180;-62
2021/12/13 01:06:07;;;;;;;1.47;1.20;;;;;;;0.09;100.00;94505.66;5032938;28;20248;-59
2021/12/13 01:08:58;;;;;;;1.60;1.50;;;;;;;0.12;100.00;94496.34;5033379;28;20192;-62
2021/12/13 01:11:50;;;;;;;1.73;1.40;;;;;;;0.15;100.00;94497.88;5033144;28;20667;-60
2021/12/13 01:14:27;;;;;;;1.33;1.20;;;;;;;0.14;100.00;94494.59;5026453;28;20267;-62
2021/12/13 01:17:03;;;;;;;1.47;1.30;;;;;;;0.16;100.00;94492.00;5032895;28;20191;-64
2021/12/13 01:19:49;;;;;;;1.47;1.33;;;;;;;0.10;100.00;94492.28;5033237;28;20227;-57
2021/12/13 01:25:18;;;;;;;1.93;1.50;;;;;;;0.18;100.00;94486.06;5032864;28;20217;-62
2021/12/13 01:27:56;;;;;;;1.80;1.40;;;;;;;0.39;100.00;94495.00;5032977;28;20544;-61
2021/12/13 01:30:31;;;;;;;1.43;1.30;;;;;;;0.26;100.00;94510.69;5032976;28;20288;-60
2021/12/13 01:33:00;;;;;;;1.27;1.20;;;;;;;0.23;100.00;94506.63;5031183;28;20176;-61
2021/12/13 01:35:30;;;;;;;1.40;1.30;;;;;;;0.22;100.00;94489.22;5032632;28;20202;-62
2021/12/13 01:38:02;;;;;;;1.50;1.40;;;;;;;0.17;100.00;94501.91;5032296;28;20175;-60
2021/12/13 01:40:31;;;;;;;2.50;1.83;;;;;;;0.18;100.00;94486.06;5030424;28;20295;-58
2021/12/13 01:43:01;;;;;;;1.63;1.53;;;;;;;0.16;100.00;94490.31;5032610;28;20192;-61
2021/12/13 01:45:31;;;;;;;1.63;1.53;;;;;;;0.15;100.00;94490.38;5032383;28;20208;-62
2021/12/13 01:47:57;;;;;;;1.60;1.30;;;;;;;0.03;100.00;94486.78;5030829;28;20176;-60
2021/12/13 01:50:29;;;;;;;1.53;1.40;;;;;;;0.06;100.00;94480.81;5039745;22;20289;-62
2021/12/13 01:52:56;;;;;;;1.47;1.37;;;;;;;0.15;100.00;94491.19;5032180;28;20285;-61
2021/12/13 01:55:35;;;;;;;1.93;1.67;;;;;;;0.10;100.00;94472.31;5032595;28;20588;-62
2021/12/13 02:01:09;;;;;;;1.37;1.27;;;;;;;0.12;100.00;94470.53;5047538;22;20224;-60
2021/12/13 02:04:02;;;;;;;1.67;1.47;;;;;;;0.10;100.00;94478.13;5032216;28;20197;-61
2021/12/13 02:06:40;;;;;;;1.47;1.37;;;;;;;0.00;100.00;94472.72;5048705;22;20666;-59
2021/12/13 02:09:21;;;;;;;2.17;1.70;;;;;;;-0.04;100.00;94465.44;5032174;28;20669;-58
2021/12/13 02:11:50;;;;;;;1.57;1.47;;;;;;;0.02;100.00;94471.84;5011127;28;20228;-60
2021/12/13 02:14:20;;;;;;;1.43;1.33;;;;;;;-0.07;100.00;94466.41;5011797;28;20301;-59
2021/12/13 02:17:10;;;;;;;2.23;2.03;;;;;;;-0.04;100.00;94471.25;5012324;28;20702;-60
2021/12/13 02:19:48;;;;;;;1.93;1.73;;;;;;;-0.13;100.00;94459.22;5012202;28;20241;-59
2021/12/13 02:22:35;;;;;;;2.77;1.90;;;;;;;-0.09;100.00;94460.69;5012163;28;20718;-61
2021/12/13 02:25:28;;;;;;;1.70;1.60;;;;;;;-0.06;100.00;94462.19;5012363;28;20675;-59
2021/12/13 02:28:10;;;;;;;1.57;1.30;;;;;;;-0.11;100.00;94462.44;5012189;28;20178;-62
2021/12/13 02:30:42;;;;;;;1.83;1.73;;;;;;;-0.15;100.00;94463.47;5011843;28;20265;-65
2021/12/13 02:33:12;;;;;;;2.13;1.80;;;;;;;-0.10;100.00;94463.22;5011469;28;20728;-62
2021/12/13 02:36:00;;;;;;;2.03;1.80;;;;;;;-0.12;100.00;94475.81;5010425;28;20228;-61
2021/12/13 02:38:26;;;;;;;2.10;1.73;;;;;;;-0.13;100.00;94475.88;5012156;28;20690;-62
2021/12/13 02:40:53;;;;;;;2.93;2.13;;;;;;;-0.09;100.00;94475.66;5012263;28;20205;-61
2021/12/13 02:43:22;;;;;;;2.27;1.60;;;;;;;-0.18;100.00;94473.59;5012270;28;20181;-61
2021/12/13 02:45:54;;;;;;;2.00;1.80;;;;;;;-0.17;100.00;94470.22;5012170;28;20221;-61
2021/12/13 02:48:31;;;;;;;2.30;2.00;;;;;;;-0.04;100.00;94476.25;5011897;28;20185;-58
2021/12/13 02:51:18;;;;;;;2.13;1.63;;;;;;;-0.19;100.00;94474.47;5012553;28;20212;-61
2021/12/13 02:54:06;;;;;;;1.70;1.50;;;;;;;-0.20;100.00;94477.84;5016144;28;20604;-57
2021/12/13 02:56:44;;;;;;;2.57;2.00;;;;;;;-0.19;100.00;94481.16;5015840;28;20207;-59
2021/12/13 02:59:12;;;;;;;1.90;1.70;;;;;;;-0.27;100.00;94484.00;5015834;28;20640;-57
2021/12/13 03:01:42;;;;;;;1.83;1.73;;;;;;;-0.22;100.00;94481.28;5015579;28;20228;-60
2021/12/13 03:04:11;;;;;;;1.70;1.60;;;;;;;-0.17;100.00;94475.22;5015316;28;20193;-62
2021/12/13 03:06:42;;;;;;;1.97;1.77;;;;;;;-0.16;100.00;94476.81;5015960;28;20220;-60
2021/12/13 03:09:17;;;;;;;2.43;1.83;;;;;;;-0.15;100.00;94478.44;5012089;28;20314;-58
2021/12/13 03:11:44;;;;;;;4.80;2.80;;;;;;;-0.14;100.00;94479.25;5015485;28;20176;-61
2021/12/13 03:14:22;;;;;;;4.63;2.20;;;;;;;-0.15;100.00;94475.97;5015655;28;20192;-61
2021/12/13 03:16:50;;;;;;;4.33;2.97;;;;;;;-0.09;100.00;94470.69;5015526;28;20632;-62
2021/12/13 03:19:37;;;;;;;2.03;1.90;;;;;;;-0.10;100.00;94479.03;5015300;28;20201;-56
2021/12/13 03:22:29;;;;;;;1.63;1.53;;;;;;;-0.22;100.00;94476.28;5015665;28;20183;-62
2021/12/13 03:25:04;;;;;;;2.77;2.50;;;;;;;-0.25;100.00;94476.44;5015530;28;20215;-60
2021/12/13 03:27:42;;;;;;;3.40;2.90;;;;;;;-0.21;100.00;94472.94;5015527;28;20192;-59
2021/12/13 03:30:13;;;;;;;2.50;2.13;;;;;;;-0.30;100.00;94466.66;5015608;28;20204;-61
2021/12/13 03:32:38;;;;;;;2.53;2.33;;;;;;;-0.28;100.00;94474.88;5014999;28;20177;-60
2021/12/13 03:35:33;;;;;;;3.30;2.40;;;;;;;-0.33;100.00;94479.31;5013266;28;20218;-58
2021/12/13 03:38:06;;;;;;;3.73;2.67;;;;;;;-0.32;100.00;94485.91;5015344;28;20167;-62
2021/12/13 03:40:34;;;;;;;3.27;2.70;;;;;;;-0.35;100.00;94475.25;5015431;28;20267;-62
2021/12/13 03:43:05;;;;;;;2.50;2.30;;;;;;;-0.36;100.00;94478.59;5014910;28;20181;-64
2021/12/13 03:45:40;;;;;;;2.70;2.40;;;;;;;-0.26;100.00;94483.13;5015022;28;20687;-59
2021/12/13 03:48:08;;;;;;;3.37;2.60;;;;;;;-0.34;100.00;94475.16;5014833;28;20170;-62
2021/12/13 03:50:38;;;;;;;2.70;2.50;;;;;;;-0.43;100.00;94469.78;5014585;28;20218;-58
2021/12/13 03:53:10;;;;;;;3.83;3.17;;;;;;;-0.42;100.00;94477.22;5014603;28;20231;-61
2021/12/13 03:55:38;;;;;;;2.07;1.93;;;;;;;-0.48;100.00;94482.47;5015020;28;20705;-62
2021/12/13 03:58:08;;;;;;;5.07;2.73;;;;;;;-0.43;100.00;94478.09;5014645;28;20184;-63
2021/12/13 04:00:38;;;;;;;3.03;2.57;;;;;;;-0.49;100.00;94477.56;5032000;22;20272;-62
2021/12/13 04:03:06;;;;;;;2.53;2.33;;;;;;;-0.49;100.00;94480.88;5033521;28;20169;-58
2021/12/13 04:05:32;;;;;;;4.00;2.70;;;;;;;-0.40;100.00;94490.44;5032900;28;20286;-59
2021/12/13 04:08:04;;;;;;;3.60;2.57;;;;;;;-0.47;100.00;94481.63;5034140;28;20263;-61
2021/12/13 04:10:55;;;;;;;3.03;2.73;;;;;;;-0.47;100.00;94473.31;5034525;28;20955;-62
2021/12/13 04:13:25;;;;;;;2.80;2.33;;;;;;;-0.49;100.00;94467.56;5023349;28;20196;-63
2021/12/13 04:21:16;;;;;;;5.53;3.50;;;;;;;-0.51;100.00;94485.13;5011983;28;20208;-60
2021/12/13 04:23:49;;;;;;;3.13;2.63;;;;;;;-0.52;100.00;94490.16;5012420;28;20185;-61
2021/12/13 04:26:15;;;;;;;3.50;2.93;;;;;;;-0.45;100.00;94489.84;5014325;28;20708;-58
2021/12/13 04:28:46;;;;;;;3.70;2.50;;;;;;;-0.47;100.00;94498.28;5014367;28;20197;-62
2021/12/13 04:31:17;;;;;;;3.27;2.70;;;;;;;-0.42;100.00;94497.19;5012810;28;20272;-59
2021/12/13 04:33:49;;;;;;;3.10;2.80;;;;;;;-0.47;100.00;94505.75;5014109;28;20186;-62
2021/12/13 04:36:32;;;;;;;3.20;2.63;;;;;;;-0.50;100.00;94509.19;5013920;28;20278;-63
2021/12/13 04:39:31;;;;;;;3.27;2.83;;;;;;;-0.48;100.00;94514.13;5013743;28;20286;-62
2021/12/13 04:42:03;;;;;;;3.67;3.13;;;;;;;-0.54;100.00;94505.22;5013704;28;20177;-62
2021/12/13 04:44:31;;;;;;;3.33;3.03;;;;;;;-0.53;100.00;94526.00;5013883;28;20192;-62
2021/12/13 04:47:04;;;;;;;3.63;3.03;;;;;;;-0.54;100.00;94520.19;5013495;28;20793;-63
2021/12/13 04:49:34;;;;;;;6.00;3.73;;;;;;;-0.47;100.00;94521.56;5013988;28;20210;-64
2021/12/13 04:52:13;;;;;;;4.93;4.23;;;;;;;-0.50;100.00;94528.34;5013579;28;20255;-62
2021/12/13 04:54:42;;;;;;;4.93;3.87;;;;;;;-0.44;100.00;94523.91;5012388;28;20216;-58
2021/12/13 04:57:08;;;;;;;4.37;3.40;;;;;;;-0.47;100.00;94525.72;5012541;28;20593;-58
2021/12/13 04:59:34;;;;;;;4.80;3.60;;;;;;;-0.49;100.00;94520.00;5011101;28;20256;-62
2021/12/13 05:02:03;;;;;;;5.63;3.93;;;;;;;-0.51;100.00;94517.56;5012428;28;20184;-62
2021/12/13 05:04:30;;;;;;;5.37;3.57;;;;;;;-0.46;100.00;94523.16;5012597;28;20541;-64
2021/12/13 05:06:58;;;;;;;4.77;3.93;;;;;;;-0.38;100.00;94525.31;5013269;28;20204;-58
2021/12/13 05:09:25;;;;;;;5.47;3.90;;;;;;;-0.37;100.00;94521.94;5012140;28;20677;-59
2021/12/13 05:12:02;;;;;;;6.70;3.70;;;;;;;-0.34;100.00;94527.59;5013313;28;20180;-62
2021/12/13 05:14:44;;;;;;;3.97;3.23;;;;;;;-0.28;100.00;94522.34;5012279;28;20256;-62
2021/12/13 05:17:21;;;;;;;4.70;3.27;;;;;;;-0.29;100.00;94528.22;5013019;28;20185;-62
2021/12/13 05:19:53;;;;;;;4.17;3.30;;;;;;;-0.34;100.00;94532.59;5011392;28;20201;-63
2021/12/13 05:22:20;;;;;;;4.27;3.37;;;;;;;-0.34;100.00;94537.59;5013022;28;20666;-60
2021/12/13 05:24:53;;;;;;;4.20;3.30;;;;;;;-0.32;100.00;94540.81;5020272;23;20225;-61
2021/12/13 05:27:27;;;;;;;4.77;3.77;;;;;;;-0.30;100.00;94533.25;5012999;28;20593;-62
2021/12/13 05:30:08;;;;;;;4.13;3.30;;;;;;;-0.32;100.00;94540.00;5013087;28;20208;-59
2021/12/13 05:32:39;;;;;;;4.93;3.57;;;;;;;-0.36;100.00;94533.53;5012901;28;20233;-60
2021/12/13 05:35:39;;;;;;;4.70;3.27;;;;;;;-0.36;100.00;94543.53;5032239;22;20315;-63
2021/12/13 05:38:09;;;;;;;4.17;3.20;;;;;;;-0.42;100.00;94544.63;5000103;28;20187;-63
2021/12/13 05:40:43;;;;;;;5.13;3.67;;;;;;;-0.48;100.00;94554.88;5031510;28;20525;-61
2021/12/13 05:43:32;;;;;;;5.50;3.97;;;;;;;-0.44;100.00;94550.53;5032335;28;20184;-57
2021/12/13 05:46:04;;;;;;;4.77;3.10;;;;;;;-0.37;100.00;94547.72;5032144;28;20303;-60
2021/12/13 05:48:35;;;;;;;6.80;4.10;;;;;;;-0.39;100.00;94554.47;5032136;28;20196;-63
2021/12/13 05:51:05;;;;;;;8.90;4.70;;;;;;;-0.36;100.00;94561.81;5032177;28;20314;-59
2021/12/13 05:53:44;;;;;;;6.80;5.17;;;;;;;0.73;100.00;94560.00;5032731;28;20181;-60
2021/12/13 05:56:16;;;;;;;6.33;4.37;;;;;;;0.24;100.00;94554.94;5032164;28;20199;-63
2021/12/13 05:59:14;;;;;;;6.40;4.00;;;;;;;0.00;100.00;94560.16;5032214;28;20193;-63
2021/12/13 06:02:11;;;;;;;7.00;3.90;;;;;;;-0.10;100.00;94573.13;4979898;28;20212;-59
2021/12/13 06:04:56;;;;;;;5.47;3.93;;;;;;;-0.05;100.00;94582.06;5039766;22;20229;-62
2021/12/13 06:07:28;;;;;;;6.63;3.97;;;;;;;-0.19;100.00;94581.88;5032065;28;20237;-62
2021/12/13 06:09:58;;;;;;;5.37;3.87;;;;;;;-0.20;100.00;94582.72;5031764;28;20208;-63
2021/12/13 06:12:31;;;;;;;3.40;3.07;;;;;;;-0.21;100.00;94582.81;5032030;28;20176;-63
2021/12/13 06:15:04;;;;;;;5.70;3.90;;;;;;;-0.15;100.00;94590.03;5031603;28;20209;-62
2021/12/13 06:17:32;;;;;;;4.87;4.10;;;;;;;-0.27;100.00;94583.06;5031803;28;20181;-61
2021/12/13 06:20:10;;;;;;;5.47;4.37;;;;;;;-0.23;100.00;94577.88;5031933;28;20202;-59
2021/12/13 06:22:35;;;;;;;5.57;3.97;;;;;;;-0.20;100.00;94587.72;5031569;28;20195;-59
2021/12/13 06:25:12;;;;;;;3.83;3.30;;;;;;;-0.29;100.00;94589.81;5031407;28;20217;-63
2021/12/13 06:27:45;;;;;;;5.37;3.50;;;;;;;-0.23;100.00;94584.56;5032245;28;20171;-60
2021/12/13 06:30:16;;;;;;;7.07;4.17;;;;;;;-0.23;100.00;94589.56;5032121;28;20618;-62
2021/12/13 06:32:54;;;;;;;5.63;3.90;;;;;;;-0.14;100.00;94591.63;5039866;22;20184;-61
2021/12/13 06:35:44;;;;;;;7.23;3.73;;;;;;;-0.23;100.00;94592.06;5011811;28;20656;-60
2021/12/13 06:38:19;;;;;;;8.53;3.97;;;;;;;-0.20;100.00;94596.91;5012430;28;20193;-58
2021/12/13 06:40:54;;;;;;;4.50;3.50;;;;;;;-0.17;100.00;94602.59;5011941;28;20200;-62
2021/12/13 06:43:34;;;;;;;5.53;4.10;;;;;;;-0.25;100.00;94597.13;5011857;28;20197;-62
2021/12/13 06:46:07;;;;;;;5.57;4.27;;;;;;;-0.14;100.00;94607.44;5020309;22;20271;-62
2021/12/13 06:48:40;;;;;;;4.33;3.67;;;;;;;-0.16;100.00;94600.88;5023704;22;20237;-61
2021/12/13 06:51:10;;;;;;;4.97;4.07;;;;;;;-0.18;100.00;94602.63;5011799;28;20202;-58
2021/12/13 06:53:36;;;;;;;5.63;4.30;;;;;;;-0.19;100.00;94611.00;5010649;28;20237;-65
2021/12/13 06:56:27;;;;;;;4.87;4.37;;;;;;;-0.23;100.00;94610.34;5011474;28;20694;-58
2021/12/13 06:58:58;;;;;;;4.60;4.10;;;;;;;-0.20;100.00;94614.38;5020551;22;20640;-64
2021/12/13 07:01:27;;;;;;;4.13;3.53;;;;;;;-0.22;100.00;94616.94;5031639;28;20573;-63
2021/12/13 07:04:02;;;;;;;3.97;3.50;;;;;;;-0.23;100.00;94615.34;5031559;28;20647;-63
2021/12/13 07:06:29;;;;;;;5.43;3.80;;;;;;;-0.12;100.00;94618.16;5031516;28;20303;-60
2021/12/13 07:09:07;;;;;;;5.17;4.17;;;;;;;-0.12;100.00;94622.34;5031707;28;20228;-64
2021/12/13 07:11:49;;;;;;;4.33;3.93;;;;;;;-0.05;100.00;94624.53;5031228;28;20207;-59
2021/12/13 07:14:37;;;;;;;4.70;3.77;;;;;;;-0.04;100.00;94626.13;5031624;28;20587;-63
2021/12/13 07:17:20;;;;;;;5.13;3.50;;;;;;;-0.10;100.00;94618.91;5031354;28;20619;-62
2021/12/13 07:19:50;;;;;;;4.87;3.83;;;;;;;-0.10;100.00;94623.09;5031645;28;20213;-59
2021/12/13 07:22:27;;;;;;;6.47;3.90;;;;;;;-0.24;100.00;94618.69;5028992;28;20196;-63
2021/12/13 07:25:13;;;;;;;4.50;3.60;;;;;;;-0.14;100.00;94629.91;5037718;22;20728;-65
2021/12/13 07:27:45;;;;;;;6.07;3.70;;;;;;;-0.11;100.00;94631.47;5031427;28;20190;-61
2021/12/13 07:30:18;;;;;;;4.80;3.73;;;;;;;-0.11;100.00;94626.47;5031472;28;20217;-66
2021/12/13 07:32:54;;;;;;;4.53;3.77;;;;;;;-0.17;100.00;94637.56;5031312;28;20264;-63
2021/12/13 07:35:32;;;;;;;9.00;4.10;;;;;;;-0.11;100.00;94634.78;5031284;28;20205;-62
2021/12/13 07:38:04;;;;;;;7.70;5.03;;;;;;;-0.15;100.00;94640.78;5032634;28;20166;-61
2021/12/13 07:40:35;;;;;;;5.63;3.77;;;;;;;0.00;100.00;94637.59;5034894;28;20622;-61
2021/12/13 07:43:22;;;;;;;5.80;4.00;;;;;;;-0.02;100.00;94646.84;5034791;28;20180;-63
2021/12/13 07:46:02;;;;;;;3.90;3.47;;;;;;;0.13;100.00;94654.53;5034189;28;20584;-63
2021/12/13 07:48:31;;;;;;;4.37;3.40;;;;;;;0.14;100.00;94647.00;5032985;28;20260;-64
2021/12/13 07:51:12;;;;;;;6.30;4.10;;;;;;;0.19;100.00;94652.59;5031982;28;20633;-60
2021/12/13 07:53:58;;;;;;;7.77;5.20;;;;;;;0.20;100.00;94653.41;5034654;28;20170;-59
2021/12/13 07:56:28;;;;;;;3.63;3.00;;;;;;;0.04;100.00;94649.97;5034329;28;20212;-62
2021/12/13 07:59:25;;;;;;;7.93;4.90;;;;;;;0.04;100.00;94652.47;5049100;22;20291;-62
2021/12/13 08:02:05;;;;;;;5.50;3.90;;;;;;;0.05;100.00;94654.06;5003000;28;20228;-64
2021/12/13 08:04:43;;;;;;;8.50;5.13;;;;;;;0.04;100.00;94648.28;5014400;28;20304;-61
2021/12/13 08:07:27;;;;;;;8.53;4.03;;;;;;;0.07;100.00;94653.13;5014254;28;20272;-62
2021/12/13 08:09:55;;;;;;;5.80;3.30;;;;;;;0.03;100.00;94645.84;5025780;22;20255;-63
2021/12/13 08:12:22;;;;;;;5.73;3.43;;;;;;;0.07;100.00;94649.81;5034097;28;20566;-58
2021/12/13 08:14:52;;;;;;;5.17;4.07;;;;;;;0.04;100.00;94657.47;5034064;28;20295;-59
2021/12/13 08:17:23;;;;;;;5.90;3.77;;;;;;;0.06;100.00;94661.53;5033945;28;20191;-63
2021/12/13 08:20:06;;;;;;;6.87;4.43;;;;;;;0.12;100.00;94660.44;5033359;28;20216;-61
2021/12/13 08:22:32;;;;;;;7.50;4.17;;;;;;;0.13;100.00;94657.03;5030285;28;20639;-62
2021/12/13 08:25:04;;;;;;;6.93;4.93;;;;;;;0.18;100.00;94670.97;5033257;28;20300;-63
2021/12/13 08:27:43;;;;;;;7.00;4.37;;;;;;;0.23;100.00;94660.75;5034271;28;20625;-63
2021/12/13 08:30:17;;;;;;;4.63;3.87;;;;;;;0.27;100.00;94669.72;5041509;22;20688;-59
2021/12/13 08:33:00;;;;;;;5.03;3.83;;;;;;;0.24;100.00;94669.88;5033727;28;20638;-58
2021/12/13 08:35:44;;;;;;;5.80;4.13;;;;;;;0.16;100.00;94666.91;5034001;28;20215;-59
2021/12/13 08:38:10;;;;;;;5.03;3.70;;;;;;;0.26;100.00;94673.13;5033762;28;20217;-58
2021/12/13 08:40:35;;;;;;;5.67;4.00;;;;;;;0.25;100.00;94669.00;5039639;23;20323;-58
2021/12/13 08:43:01;;;;;;;8.97;3.73;;;;;;;0.15;100.00;94665.28;5013821;28;20175;-58
2021/12/13 08:45:33;;;;;;;5.80;3.50;;;;;;;0.20;100.00;94666.72;5013440;28;20205;-58
2021/12/13 08:48:15;;;;;;;6.87;4.43;;;;;;;0.20;100.00;94661.72;5013367;28;20178;-58
2021/12/13 08:50:50;;;;;;;6.43;4.17;;;;;;;0.16;100.00;94651.94;5013294;28;20194;-59
2021/12/13 08:53:29;;;;;;;4.93;3.30;;;;;;;0.17;100.00;94669.34;5022398;22;20205;-59
2021/12/13 08:56:07;;;;;;;5.40;3.80;;;;;;;0.24;100.00;94664.88;5031853;22;20227;-59
2021/12/13 08:58:34;;;;;;;6.97;4.30;;;;;;;0.33;100.00;94656.97;5033112;28;20185;-59
2021/12/13 09:01:13;;;;;;;10.17;5.00;;;;;;;0.35;100.00;94671.00;5047811;22;20311;-58
2021/12/13 09:03:46;;;;;;;5.97;4.77;;;;;;;0.43;100.00;94673.97;5033116;28;20204;-59
2021/12/13 09:06:25;;;;;;;5.53;4.43;;;;;;;0.48;100.00;94674.59;5031780;28;20671;-60
2021/12/13 09:09:12;;;;;;;7.40;4.07;;;;;;;0.42;100.00;94676.56;5033297;28;20594;-59
2021/12/13 09:11:45;;;;;;;6.17;4.57;;;;;;;0.64;100.00;94674.69;5033332;28;20198;-59
2021/12/13 09:14:22;;;;;;;5.60;4.43;;;;;;;0.54;100.00;94681.00;5032955;28;20178;-61
2021/12/13 09:17:13;;;;;;;8.27;4.73;;;;;;;0.60;100.00;94669.03;5033444;28;20282;-64
2021/12/13 09:19:41;;;;;;;8.37;4.63;;;;;;;0.53;100.00;94676.88;5031625;28;20209;-62
2021/12/13 09:22:22;;;;;;;5.77;3.90;;;;;;;0.56;100.00;94671.75;5032919;28;20253;-62
2021/12/13 09:24:50;;;;;;;6.67;4.73;;;;;;;0.69;100.00;94667.78;5033142;23;21205;-63
2021/12/13 09:27:36;;;;;;;6.90;4.97;;;;;;;0.53;100.00;94667.69;5012832;28;20248;-57
2021/12/13 09:32:51;;;;;;;8.80;5.40;;;;;;;0.59;100.00;94657.41;5019946;22;20245;-60
2021/12/13 09:35:29;;;;;;;6.23;4.30;;;;;;;0.55;100.00;94650.09;5012601;28;20310;-62
2021/12/13 09:37:59;;;;;;;5.00;4.07;;;;;;;0.49;100.00;94651.19;5013171;28;20170;-59
2021/12/13 09:40:33;;;;;;;7.63;4.90;;;;;;;0.46;100.00;94653.03;5028835;22;20255;-57
2021/12/13 09:42:59;;;;;;;5.90;4.17;;;;;;;0.41;100.00;94652.41;5032433;28;20204;-60
2021/12/13 09:45:33;;;;;;;5.90;4.30;;;;;;;0.40;100.00;94645.81;5032473;28;20228;-61
2021/12/13 09:48:19;;;;;;;7.60;4.03;;;;;;;0.49;100.00;94650.38;5032344;28;20651;-63
2021/12/13 09:50:50;;;;;;;6.40;4.17;;;;;;;0.55;100.00;94650.09;5032113;28;20259;-60
2021/12/13 09:53:16;;;;;;;4.80;4.27;;;;;;;0.44;100.00;94662.28;5032670;28;20564;-62
2021/12/13 09:55:48;;;;;;;5.57;4.60;;;;;;;0.50;100.00;94654.50;5032631;28;20201;-59
2021/12/13 09:58:21;;;;;;;5.93;4.10;;;;;;;0.41;100.00;94649.91;5032396;28;20165;-63
2021/12/13 10:00:52;;;;;;;9.50;4.10;;;;;;;0.47;100.00;94649.63;5030511;28;20205;-61
2021/12/13 10:03:30;;;;;;;4.77;3.83;;;;;;;0.41;100.00;94650.75;5032426;28;20173;-62
2021/12/13 10:06:00;;;;;;;5.17;3.70;;;;;;;0.43;100.00;94648.16;5039525;22;20658;-59
2021/12/13 10:08:37;;;;;;;5.17;3.90;;;;;;;0.55;100.00;94642.59;5032170;28;20209;-59
2021/12/13 10:11:07;;;;;;;4.43;3.60;;;;;;;0.62;100.00;94646.44;5032550;28;20203;-62
2021/12/13 10:13:37;;;;;;;5.33;3.90;;;;;;;0.56;100.00;94639.22;5032042;28;20566;-62
2021/12/13 10:16:07;;;;;;;7.00;4.67;;;;;;;0.68;100.00;94648.66;5039198;22;20741;-58
2021/12/13 10:18:36;;;;;;;6.57;3.80;;;;;;;0.61;100.00;94644.81;5039832;22;20249;-62
2021/12/13 10:21:07;;;;;;;5.30;4.10;;;;;;;0.50;100.00;94644.50;5031904;28;20196;-61
2021/12/13 10:23:39;;;;;;;5.87;4.20;;;;;;;0.57;100.00;94639.16;5032050;28;20705;-61
2021/12/13 10:26:10;;;;;;;9.83;4.00;;;;;;;0.56;100.00;94642.56;5032008;28;20216;-58
2021/12/13 10:28:39;;;;;;;4.93;4.07;;;;;;;0.67;100.00;94635.34;5031747;28;20663;-63
2021/12/13 10:31:18;;;;;;;6.30;3.90;;;;;;;0.73;100.00;94636.72;5031814;28;20194;-63
2021/12/13 10:33:45;;;;;;;5.17;4.00;;;;;;;0.80;100.00;94633.91;5032280;28;20180;-61
2021/12/13 10:36:11;;;;;;;5.13;4.00;;;;;;;0.76;100.00;94631.59;5039073;22;20257;-64
2021/12/13 10:38:47;;;;;;;4.37;3.63;;;;;;;0.82;100.00;94631.31;5031779;28;20177;-63
2021/12/13 10:41:18;;;;;;;6.50;4.13;;;;;;;0.73;100.00;94631.72;5032199;28;20201;-58
2021/12/13 10:43:49;;;;;;;4.73;3.97;;;;;;;0.84;100.00;94637.06;5046338;22;20680;-61
2021/12/13 10:46:20;;;;;;;4.43;3.80;;;;;;;0.78;100.00;94640.66;5030340;28;20703;-61
2021/12/13 10:48:50;;;;;;;4.13;3.73;;;;;;;0.77;100.00;94615.69;5038915;22;20225;-61
2021/12/13 10:51:39;;;;;;;8.90;4.40;;;;;;;0.88;100.00;94625.19;5031440;28;20201;-61
2021/12/13 10:54:09;;;;;;;6.37;3.73;;;;;;;0.98;100.00;94628.88;5030820;28;20194;-62
2021/12/13 10:56:42;;;;;;;4.20;3.07;;;;;;;0.80;100.00;94631.41;5039053;22;20232;-64
2021/12/13 10:59:12;;;;;;;6.40;3.77;;;;;;;0.89;100.00;94625.13;5031741;28;20174;-61
2021/12/13 11:01:43;;;;;;;4.30;3.60;;;;;;;0.89;100.00;94625.13;5011894;28;20264;-63
2021/12/13 11:04:13;;;;;;;4.90;3.10;;;;;;;0.96;100.00;94635.66;5010393;28;20608;-61
2021/12/13 11:06:42;;;;;;;4.50;3.57;;;;;;;0.95;100.00;94627.31;5012033;28;20220;-64
2021/12/13 11:09:12;;;;;;;5.43;3.83;;;;;;;0.98;100.00;94622.19;5010555;28;20179;-62
2021/12/13 11:11:45;;;;;;;7.47;4.07;;;;;;;0.96;100.00;94626.44;5011136;28;20192;-61
2021/12/13 11:14:15;;;;;;;9.10;4.47;;;;;;;1.04;100.00;94621.88;5014001;28;20194;-63
2021/12/13 11:16:43;;;;;;;9.43;5.73;;;;;;;1.07;100.00;94624.22;5030634;28;20193;-63
2021/12/13 11:19:12;;;;;;;7.10;5.07;;;;;;;1.18;100.00;94614.50;5015133;28;20190;-62
2021/12/13 11:21:40;;;;;;;6.77;4.03;;;;;;;1.06;100.00;94630.13;5111351;22;20295;-63
2021/12/13 11:24:08;;;;;;;7.80;5.20;;;;;;;1.12;100.00;94617.31;5035039;28;20618;-61
2021/12/13 11:26:37;;;;;;;6.77;4.93;;;;;;;1.24;100.00;94629.22;5035370;28;20244;-59
2021/12/13 11:29:04;;;;;;;7.40;5.00;;;;;;;1.15;100.00;94619.66;5035094;28;20186;-60
2021/12/13 11:31:29;;;;;;;5.30;4.33;;;;;;;1.17;100.00;94617.88;5035223;28;20210;-61
2021/12/13 11:34:01;;;;;;;8.50;5.30;;;;;;;1.17;100.00;94620.38;5035153;28;20623;-62
2021/12/13 11:36:57;;;;;;;6.03;4.60;;;;;;;1.06;100.00;94612.63;5035254;28;20570;-63
2021/12/13 11:39:50;;;;;;;6.67;3.97;;;;;;;1.04;100.00;94618.56;5033979;28;20651;-59
2021/12/13 11:42:52;;;;;;;4.97;4.53;;;;;;;1.03;100.00;94627.75;5035257;28;20672;-60
2021/12/13 11:45:36;;;;;;;5.10;4.10;;;;;;;1.02;100.00;94623.66;5034270;28;20193;-59
2021/12/13 11:48:16;;;;;;;6.43;4.60;;;;;;;1.09;100.00;94629.19;5032842;28;20722;-61
2021/12/13 11:51:19;;;;;;;5.33;4.57;;;;;;;1.08;100.00;94625.03;5033459;28;20220;-63
2021/12/13 11:53:57;;;;;;;5.87;4.37;;;;;;;1.26;100.00;94619.97;5034670;28;20185;-59
2021/12/13 11:56:48;;;;;;;9.20;4.97;;;;;;;1.24;100.00;94616.72;5033378;28;20247;-60
2021/12/13 11:59:51;;;;;;;9.17;5.43;;;;;;;1.20;100.00;94622.75;5034769;28;20177;-59
2021/12/13 12:03:01;;;;;;;7.43;5.03;;;;;;;1.31;100.00;94628.06;5033356;28;20683;-62
2021/12/13 12:05:59;;;;;;;8.27;6.20;;;;;;;1.26;100.00;94624.16;5034296;28;20229;-60
2021/12/13 12:08:46;;;;;;;7.40;5.27;;;;;;;1.17;100.00;94630.41;5034647;28;20163;-63
2021/12/13 12:11:32;;;;;;;8.93;5.70;;;;;;;1.21;100.00;94621.84;5034580;28;20606;-62
2021/12/13 12:14:04;;;;;;;10.20;5.60;;;;;;;1.29;100.00;94627.31;5033006;28;20218;-60
2021/12/13 12:16:46;;;;;;;7.70;5.97;;;;;;;1.17;100.00;94634.63;5033283;28;20213;-62
2021/12/13 12:19:20;;;;;;;7.80;6.13;;;;;;;1.12;100.00;94626.50;5034281;28;20173;-59
2021/12/13 12:22:01;;;;;;;11.40;7.03;;;;;;;0.99;100.00;94616.28;5034475;28;20613;-61